createdAt,value
2018-10-05T00:00:00.829Z,0
2018-10-05T00:01:02.216Z,0
2018-10-05T00:02:03.610Z,0
2018-10-05T00:03:05.004Z,0
2018-10-05T00:04:06.395Z,0
2018-10-05T00:05:07.776Z,0
2018-10-05T00:06:09.167Z,0
2018-10-05T00:07:10.555Z,0
2018-10-05T00:08:11.954Z,0
2018-10-05T00:09:13.348Z,0
2018-10-05T00:10:14.741Z,0
2018-10-05T00:11:16.129Z,0
2018-10-05T00:12:17.526Z,0
2018-10-05T00:13:18.908Z,0
2018-10-05T00:14:20.300Z,0
2018-10-05T00:15:21.685Z,0
2018-10-05T00:16:23.078Z,0
2018-10-05T00:17:24.479Z,0
2018-10-05T00:18:25.871Z,0
2018-10-05T00:19:27.264Z,0
2018-10-05T00:20:28.693Z,0
2018-10-05T00:21:30.045Z,0
2018-10-05T00:22:31.467Z,0
2018-10-05T00:23:32.856Z,0
2018-10-05T00:24:34.243Z,0
2018-10-05T00:25:35.629Z,0
2018-10-05T00:26:37.038Z,0
2018-10-05T00:27:38.428Z,0
2018-10-05T00:28:39.808Z,0
2018-10-05T00:29:41.197Z,0
2018-10-05T00:30:42.618Z,0
2018-10-05T00:31:44.009Z,0
2018-10-05T00:32:45.410Z,0
2018-10-05T00:33:46.784Z,0
2018-10-05T00:34:48.176Z,0
2018-10-05T00:35:49.564Z,0
2018-10-05T00:36:50.949Z,0
2018-10-05T00:37:52.344Z,0
2018-10-05T00:38:53.729Z,0
2018-10-05T00:39:55.112Z,0
2018-10-05T00:40:56.531Z,0
2018-10-05T00:41:57.925Z,0
2018-10-05T00:42:59.328Z,0
2018-10-05T00:44:00.711Z,0
2018-10-05T00:45:02.100Z,0
2018-10-05T00:46:03.501Z,0
2018-10-05T00:47:04.888Z,0
2018-10-05T00:48:06.288Z,0
2018-10-05T00:49:07.673Z,0
2018-10-05T00:50:09.092Z,0
2018-10-05T00:51:10.473Z,0
2018-10-05T00:52:11.899Z,0
2018-10-05T00:53:13.511Z,0
2018-10-05T00:54:14.728Z,0
2018-10-05T00:55:16.122Z,0
2018-10-05T00:56:17.518Z,0
2018-10-05T00:57:18.929Z,0
2018-10-05T00:58:20.351Z,0
2018-10-05T00:59:21.750Z,0
2018-10-05T01:00:23.177Z,0
2018-10-05T01:01:24.589Z,0
2018-10-05T01:02:26.028Z,0
2018-10-05T01:03:27.421Z,0
2018-10-05T01:04:28.864Z,0
2018-10-05T01:05:30.266Z,0
2018-10-05T01:06:31.664Z,0
2018-10-05T01:07:33.050Z,0
2018-10-05T01:08:34.441Z,0
2018-10-05T01:09:35.830Z,0
2018-10-05T01:10:37.213Z,0
2018-10-05T01:11:38.662Z,0
2018-10-05T01:12:40.057Z,0
2018-10-05T01:13:41.436Z,0
2018-10-05T01:14:42.830Z,0
2018-10-05T01:15:44.238Z,0
2018-10-05T01:16:45.613Z,0
2018-10-05T01:17:46.997Z,0
2018-10-05T01:18:48.382Z,0
2018-10-05T01:19:49.772Z,0
2018-10-05T01:20:51.171Z,0
2018-10-05T01:21:52.563Z,0
2018-10-05T01:22:53.945Z,0
2018-10-05T01:23:55.337Z,0
2018-10-05T01:24:56.807Z,0
2018-10-05T01:25:58.131Z,0
2018-10-05T01:26:59.517Z,0
2018-10-05T01:28:00.916Z,0
2018-10-05T01:29:02.306Z,0
2018-10-05T01:30:03.703Z,0
2018-10-05T01:31:05.082Z,0
2018-10-05T01:32:06.466Z,0
2018-10-05T01:33:07.858Z,0
2018-10-05T01:34:09.241Z,0
2018-10-05T01:35:10.631Z,0
2018-10-05T01:36:12.021Z,0
2018-10-05T01:37:13.463Z,0
2018-10-05T01:38:14.898Z,0
2018-10-05T01:39:16.302Z,0
2018-10-05T01:40:17.735Z,0
2018-10-05T01:41:19.129Z,0
2018-10-05T01:42:20.529Z,0
2018-10-05T01:43:21.941Z,0
2018-10-05T01:44:23.355Z,0
2018-10-05T01:45:24.750Z,0
2018-10-05T01:46:26.193Z,0
2018-10-05T01:47:27.588Z,0
2018-10-05T01:48:28.997Z,0
2018-10-05T01:49:30.442Z,0
2018-10-05T01:50:31.847Z,0
2018-10-05T01:51:33.284Z,0
2018-10-05T01:52:34.672Z,0
2018-10-05T01:53:36.078Z,0
2018-10-05T01:54:37.482Z,0
2018-10-05T01:55:38.868Z,0
2018-10-05T01:56:40.253Z,0
2018-10-05T01:57:41.661Z,0
2018-10-05T01:58:43.051Z,0
2018-10-05T01:59:44.454Z,0
2018-10-05T02:00:45.851Z,0
2018-10-05T02:01:47.246Z,0
2018-10-05T02:02:48.652Z,0
2018-10-05T02:03:50.817Z,0
2018-10-05T02:04:52.225Z,0
2018-10-05T02:05:53.615Z,0
2018-10-05T02:06:55.009Z,0
2018-10-05T02:07:56.531Z,0
2018-10-05T02:08:57.968Z,0
2018-10-05T02:09:59.415Z,0
2018-10-05T02:11:00.891Z,0
2018-10-05T02:12:02.299Z,0
2018-10-05T02:13:03.736Z,0
2018-10-05T02:14:05.134Z,0
2018-10-05T02:15:06.535Z,0
2018-10-05T02:16:07.978Z,0
2018-10-05T02:17:09.408Z,0
2018-10-05T02:18:10.810Z,0
2018-10-05T02:19:12.217Z,0
2018-10-05T02:20:13.616Z,0
2018-10-05T02:21:15.035Z,0
2018-10-05T02:22:16.427Z,0
2018-10-05T02:23:17.861Z,0
2018-10-05T02:24:19.243Z,0
2018-10-05T02:25:20.638Z,0
2018-10-05T02:26:22.047Z,0
2018-10-05T02:27:23.473Z,0
2018-10-05T02:28:24.832Z,0
2018-10-05T02:29:26.289Z,0
2018-10-05T02:30:27.688Z,0
2018-10-05T02:31:29.081Z,0
2018-10-05T02:32:30.467Z,0
2018-10-05T02:33:31.864Z,0
2018-10-05T02:34:33.274Z,0
2018-10-05T02:35:34.669Z,0
2018-10-05T02:36:36.069Z,0
2018-10-05T02:37:37.463Z,0
2018-10-05T02:38:38.855Z,0
2018-10-05T02:39:40.261Z,0
2018-10-05T02:40:41.667Z,0
2018-10-05T02:41:43.115Z,0
2018-10-05T02:42:44.453Z,0
2018-10-05T02:43:45.865Z,0
2018-10-05T02:44:47.247Z,0
2018-10-05T02:45:48.640Z,0
2018-10-05T02:46:50.026Z,0
2018-10-05T02:47:51.428Z,0
2018-10-05T02:48:52.806Z,0
2018-10-05T02:49:54.202Z,0
2018-10-05T02:50:55.592Z,0
2018-10-05T02:51:56.971Z,0
2018-10-05T02:52:58.376Z,0
2018-10-05T02:53:59.776Z,0
2018-10-05T02:55:01.180Z,0
2018-10-05T02:56:02.582Z,0
2018-10-05T02:57:03.985Z,0
2018-10-05T02:58:05.391Z,0
2018-10-05T02:59:06.781Z,0
2018-10-05T03:00:08.172Z,0
2018-10-05T03:01:09.574Z,0
2018-10-05T03:02:10.977Z,0
2018-10-05T03:03:12.363Z,0
2018-10-05T03:04:13.747Z,0
2018-10-05T03:05:15.144Z,0
2018-10-05T03:06:16.545Z,0
2018-10-05T03:07:17.932Z,0
2018-10-05T03:08:19.336Z,0
2018-10-05T03:09:20.767Z,0
2018-10-05T03:10:22.180Z,0
2018-10-05T03:11:23.614Z,0
2018-10-05T03:12:25.050Z,0
2018-10-05T03:13:26.483Z,0
2018-10-05T03:14:27.888Z,0
2018-10-05T03:15:29.340Z,0
2018-10-05T03:16:30.754Z,0
2018-10-05T03:17:32.161Z,0
2018-10-05T03:18:33.590Z,0
2018-10-05T03:19:35.018Z,0
2018-10-05T03:20:36.405Z,0
2018-10-05T03:21:37.801Z,0
2018-10-05T03:22:39.200Z,0
2018-10-05T03:23:40.651Z,0
2018-10-05T03:24:42.066Z,0
2018-10-05T03:25:43.539Z,0
2018-10-05T03:26:44.932Z,0
2018-10-05T03:27:46.336Z,0
2018-10-05T03:28:47.765Z,0
2018-10-05T03:29:49.229Z,0
2018-10-05T03:30:50.639Z,0
2018-10-05T03:31:52.048Z,0
2018-10-05T03:32:53.483Z,0
2018-10-05T03:33:54.941Z,0
2018-10-05T03:34:56.380Z,0
2018-10-05T03:35:57.829Z,0
2018-10-05T03:36:59.223Z,0
2018-10-05T03:38:00.621Z,0
2018-10-05T03:39:02.014Z,0
2018-10-05T03:40:03.412Z,0
2018-10-05T03:41:04.801Z,0
2018-10-05T03:42:06.187Z,0
2018-10-05T03:43:07.589Z,0
2018-10-05T03:44:09.242Z,0
2018-10-05T03:45:10.870Z,0
2018-10-05T03:46:12.428Z,0
2018-10-05T03:47:13.762Z,0
2018-10-05T03:48:15.139Z,0
2018-10-05T03:49:16.529Z,0
2018-10-05T03:50:17.942Z,0
2018-10-05T03:51:19.329Z,0
2018-10-05T03:52:20.724Z,0
2018-10-05T03:53:22.116Z,0
2018-10-05T03:54:23.499Z,0
2018-10-05T03:55:24.901Z,0
2018-10-05T03:56:26.289Z,0
2018-10-05T03:57:27.701Z,0
2018-10-05T03:58:29.091Z,0
2018-10-05T03:59:30.491Z,0
2018-10-05T04:00:31.882Z,0
2018-10-05T04:01:33.289Z,0
2018-10-05T04:02:34.677Z,0
2018-10-05T04:03:36.064Z,0
2018-10-05T04:04:37.448Z,0
2018-10-05T04:05:38.847Z,0
2018-10-05T04:06:40.233Z,0
2018-10-05T04:07:41.626Z,0
2018-10-05T04:08:43.014Z,0
2018-10-05T04:09:44.404Z,0
2018-10-05T04:10:45.790Z,0
2018-10-05T04:11:47.180Z,0
2018-10-05T04:12:48.568Z,0
2018-10-05T04:13:49.961Z,0
2018-10-05T04:14:51.345Z,0
2018-10-05T04:15:52.748Z,0
2018-10-05T04:16:54.139Z,0
2018-10-05T04:17:55.523Z,0
2018-10-05T04:18:56.924Z,0
2018-10-05T04:19:58.308Z,0
2018-10-05T04:20:59.690Z,0
2018-10-05T04:22:01.088Z,0
2018-10-05T04:23:02.468Z,0
2018-10-05T04:24:03.850Z,0
2018-10-05T04:25:05.249Z,0
2018-10-05T04:26:06.638Z,0
2018-10-05T04:27:08.048Z,0
2018-10-05T04:28:09.435Z,0
2018-10-05T04:29:10.834Z,0
2018-10-05T04:30:12.218Z,0
2018-10-05T04:31:13.604Z,0
2018-10-05T04:32:15.012Z,0
2018-10-05T04:33:16.433Z,0
2018-10-05T04:34:17.824Z,0
2018-10-05T04:35:19.260Z,0
2018-10-05T04:36:20.649Z,0
2018-10-05T04:37:22.039Z,0
2018-10-05T04:38:23.426Z,0
2018-10-05T04:39:24.818Z,0
2018-10-05T04:40:26.205Z,0
2018-10-05T04:41:27.614Z,0
2018-10-05T04:42:28.997Z,0
2018-10-05T04:43:30.405Z,0
2018-10-05T04:44:31.788Z,0
2018-10-05T04:45:33.183Z,0
2018-10-05T04:46:34.620Z,0
2018-10-05T04:47:36.011Z,0
2018-10-05T04:48:37.421Z,0
2018-10-05T04:49:38.887Z,0
2018-10-05T04:50:40.209Z,0
2018-10-05T04:51:41.602Z,0
2018-10-05T04:52:42.993Z,0
2018-10-05T04:53:44.388Z,0
2018-10-05T04:54:45.789Z,0
2018-10-05T04:55:47.181Z,0
2018-10-05T04:56:48.792Z,0
2018-10-05T04:57:50.121Z,0
2018-10-05T04:58:51.519Z,0
2018-10-05T04:59:52.939Z,0
2018-10-05T05:00:54.319Z,0
2018-10-05T05:01:55.707Z,0
2018-10-05T05:02:57.152Z,0
2018-10-05T05:03:58.543Z,0
2018-10-05T05:05:00.012Z,0
2018-10-05T05:06:01.397Z,0
2018-10-05T05:07:02.783Z,0
2018-10-05T05:08:04.172Z,0
2018-10-05T05:09:05.569Z,0
2018-10-05T05:10:07.053Z,0
2018-10-05T05:11:08.452Z,0
2018-10-05T05:12:09.892Z,4
2018-10-05T05:13:11.226Z,4
2018-10-05T05:14:12.611Z,0
2018-10-05T05:15:14.002Z,0
2018-10-05T05:16:15.412Z,4
2018-10-05T05:17:16.802Z,4
2018-10-05T05:18:18.202Z,0
2018-10-05T05:19:19.928Z,4
2018-10-05T05:20:21.370Z,4
2018-10-05T05:21:22.754Z,8
2018-10-05T05:22:24.162Z,4
2018-10-05T05:23:25.556Z,8
2018-10-05T05:24:26.939Z,8
2018-10-05T05:25:28.347Z,8
2018-10-05T05:26:29.745Z,12
2018-10-05T05:27:31.129Z,16
2018-10-05T05:28:32.534Z,16
2018-10-05T05:29:33.925Z,20
2018-10-05T05:30:35.317Z,24
2018-10-05T05:31:36.703Z,28
2018-10-05T05:32:38.102Z,28
2018-10-05T05:33:39.751Z,36
2018-10-05T05:34:40.882Z,40
2018-10-05T05:35:42.268Z,44
2018-10-05T05:36:43.664Z,52
2018-10-05T05:37:45.049Z,56
2018-10-05T05:38:46.450Z,64
2018-10-05T05:39:47.846Z,72
2018-10-05T05:40:49.294Z,76
2018-10-05T05:41:50.801Z,84
2018-10-05T05:42:52.401Z,92
2018-10-05T05:43:53.806Z,100
2018-10-05T05:44:55.237Z,108
2018-10-05T05:45:56.658Z,116
2018-10-05T05:46:58.140Z,128
2018-10-05T05:47:59.481Z,136
2018-10-05T05:49:01.147Z,144
2018-10-05T05:50:02.590Z,156
2018-10-05T05:51:04.092Z,168
2018-10-05T05:52:05.708Z,180
2018-10-05T05:53:07.133Z,188
2018-10-05T05:54:08.724Z,196
2018-10-05T05:55:10.069Z,208
2018-10-05T05:56:11.485Z,220
2018-10-05T05:57:12.973Z,232
2018-10-05T05:58:14.566Z,244
2018-10-05T05:59:15.968Z,252
2018-10-05T06:00:17.356Z,264
2018-10-05T06:01:18.767Z,276
2018-10-05T06:02:20.178Z,284
2018-10-05T06:03:21.568Z,292
2018-10-05T06:04:22.958Z,304
2018-10-05T06:05:24.345Z,316
2018-10-05T06:06:25.743Z,324
2018-10-05T06:07:27.142Z,336
2018-10-05T06:08:28.560Z,344
2018-10-05T06:09:29.957Z,356
2018-10-05T06:10:31.347Z,364
2018-10-05T06:11:32.732Z,376
2018-10-05T06:12:34.121Z,384
2018-10-05T06:13:35.514Z,392
2018-10-05T06:14:36.901Z,404
2018-10-05T06:15:38.295Z,412
2018-10-05T06:16:39.760Z,424
2018-10-05T06:17:41.173Z,428
2018-10-05T06:18:42.559Z,440
2018-10-05T06:19:43.949Z,448
2018-10-05T06:20:45.346Z,456
2018-10-05T06:21:46.846Z,464
2018-10-05T06:22:48.134Z,472
2018-10-05T06:23:49.528Z,480
2018-10-05T06:24:50.924Z,488
2018-10-05T06:25:52.323Z,496
2018-10-05T06:26:53.713Z,500
2018-10-05T06:27:55.165Z,512
2018-10-05T06:28:56.556Z,520
2018-10-05T06:29:57.997Z,524
2018-10-05T06:30:59.463Z,532
2018-10-05T06:32:00.781Z,540
2018-10-05T06:33:02.188Z,548
2018-10-05T06:34:03.558Z,552
2018-10-05T06:35:04.955Z,560
2018-10-05T06:36:06.358Z,564
2018-10-05T06:37:07.755Z,576
2018-10-05T06:38:09.183Z,580
2018-10-05T06:39:10.597Z,584
2018-10-05T06:40:11.923Z,592
2018-10-05T06:41:13.313Z,596
2018-10-05T06:42:14.775Z,604
2018-10-05T06:43:16.093Z,608
2018-10-05T06:44:17.484Z,616
2018-10-05T06:45:18.878Z,620
2018-10-05T06:46:20.272Z,624
2018-10-05T06:47:21.666Z,632
2018-10-05T06:48:23.076Z,636
2018-10-05T06:49:24.481Z,640
2018-10-05T06:50:25.875Z,644
2018-10-05T06:51:27.265Z,648
2018-10-05T06:52:28.665Z,656
2018-10-05T06:53:30.050Z,656
2018-10-05T06:54:31.451Z,664
2018-10-05T06:55:32.846Z,672
2018-10-05T06:56:34.235Z,676
2018-10-05T06:57:35.628Z,676
2018-10-05T06:58:37.026Z,684
2018-10-05T06:59:38.417Z,688
2018-10-05T07:00:39.805Z,692
2018-10-05T07:01:41.248Z,696
2018-10-05T07:02:42.598Z,700
2018-10-05T07:03:43.992Z,708
2018-10-05T07:04:45.389Z,708
2018-10-05T07:05:46.780Z,712
2018-10-05T07:06:48.184Z,716
2018-10-05T07:07:49.723Z,716
2018-10-05T07:08:50.961Z,724
2018-10-05T07:09:52.360Z,728
2018-10-05T07:10:53.765Z,728
2018-10-05T07:11:55.153Z,736
2018-10-05T07:12:56.550Z,740
2018-10-05T07:13:57.944Z,744
2018-10-05T07:14:59.340Z,748
2018-10-05T07:16:00.731Z,748
2018-10-05T07:17:02.173Z,756
2018-10-05T07:18:03.533Z,760
2018-10-05T07:19:04.921Z,760
2018-10-05T07:20:06.313Z,768
2018-10-05T07:21:07.721Z,772
2018-10-05T07:22:09.108Z,776
2018-10-05T07:23:10.492Z,780
2018-10-05T07:24:11.892Z,788
2018-10-05T07:25:13.316Z,792
2018-10-05T07:26:14.724Z,800
2018-10-05T07:27:16.109Z,804
2018-10-05T07:28:17.595Z,808
2018-10-05T07:29:18.908Z,812
2018-10-05T07:30:20.297Z,816
2018-10-05T07:31:21.689Z,820
2018-10-05T07:32:23.083Z,824
2018-10-05T07:33:24.471Z,832
2018-10-05T07:34:25.861Z,836
2018-10-05T07:35:27.270Z,840
2018-10-05T07:36:28.638Z,844
2018-10-05T07:37:30.089Z,852
2018-10-05T07:38:31.418Z,852
2018-10-05T07:39:32.820Z,860
2018-10-05T07:40:34.221Z,864
2018-10-05T07:41:35.640Z,868
2018-10-05T07:42:37.031Z,868
2018-10-05T07:43:38.418Z,876
2018-10-05T07:44:39.811Z,880
2018-10-05T07:45:41.201Z,888
2018-10-05T07:46:42.595Z,892
2018-10-05T07:47:43.982Z,900
2018-10-05T07:48:45.376Z,908
2018-10-05T07:49:46.770Z,904
2018-10-05T07:50:48.154Z,912
2018-10-05T07:51:49.599Z,908
2018-10-05T07:52:50.937Z,920
2018-10-05T07:53:52.324Z,924
2018-10-05T07:54:53.740Z,932
2018-10-05T07:55:55.129Z,940
2018-10-05T07:56:56.521Z,944
2018-10-05T07:57:57.997Z,948
2018-10-05T07:58:59.304Z,956
2018-10-05T08:00:00.698Z,964
2018-10-05T08:01:02.090Z,980
2018-10-05T08:02:03.493Z,984
2018-10-05T08:03:04.890Z,992
2018-10-05T08:04:06.280Z,1000
2018-10-05T08:05:07.673Z,1012
2018-10-05T08:06:09.064Z,1020
2018-10-05T08:07:10.453Z,1032
2018-10-05T08:08:11.847Z,1048
2018-10-05T08:09:13.249Z,1060
2018-10-05T08:10:14.650Z,1072
2018-10-05T08:11:16.038Z,1092
2018-10-05T08:12:17.428Z,1108
2018-10-05T08:13:18.820Z,1124
2018-10-05T08:14:20.216Z,1148
2018-10-05T08:15:21.612Z,1168
2018-10-05T08:16:23.007Z,1192
2018-10-05T08:17:24.403Z,1212
2018-10-05T08:18:25.797Z,1232
2018-10-05T08:19:27.190Z,1252
2018-10-05T08:20:28.582Z,1280
2018-10-05T08:21:29.986Z,1308
2018-10-05T08:22:31.368Z,1348
2018-10-05T08:23:32.762Z,1384
2018-10-05T08:24:34.147Z,1432
2018-10-05T08:25:35.542Z,1492
2018-10-05T08:26:36.933Z,1548
2018-10-05T08:27:38.324Z,1612
2018-10-05T08:28:39.717Z,1688
2018-10-05T08:29:41.111Z,1764
2018-10-05T08:30:42.507Z,1840
2018-10-05T08:31:43.896Z,1912
2018-10-05T08:32:45.289Z,1976
2018-10-05T08:33:46.690Z,2056
2018-10-05T08:34:48.074Z,2136
2018-10-05T08:35:49.466Z,2224
2018-10-05T08:36:50.890Z,2348
2018-10-05T08:37:52.263Z,2448
2018-10-05T08:38:53.659Z,2572
2018-10-05T08:39:55.116Z,2660
2018-10-05T08:40:56.444Z,2768
2018-10-05T08:41:57.839Z,2900
2018-10-05T08:42:59.237Z,3032
2018-10-05T08:44:00.631Z,3144
2018-10-05T08:45:02.034Z,3252
2018-10-05T08:46:03.494Z,3420
2018-10-05T08:47:04.865Z,3536
2018-10-05T08:48:06.284Z,3656
2018-10-05T08:49:07.683Z,3568
2018-10-05T08:50:09.078Z,3844
2018-10-05T08:51:10.472Z,3912
2018-10-05T08:52:11.875Z,3960
2018-10-05T08:53:13.265Z,4000
2018-10-05T08:54:14.657Z,4068
2018-10-05T08:55:16.163Z,4144
2018-10-05T08:56:17.521Z,4228
2018-10-05T08:57:18.922Z,4308
2018-10-05T08:58:20.318Z,4400
2018-10-05T08:59:21.713Z,4468
2018-10-05T09:00:23.169Z,4648
2018-10-05T09:01:24.509Z,4736
2018-10-05T09:02:25.896Z,4928
2018-10-05T09:03:27.297Z,4920
2018-10-05T09:04:28.698Z,4936
2018-10-05T09:05:30.092Z,4324
2018-10-05T09:06:31.502Z,4784
2018-10-05T09:07:32.907Z,4876
2018-10-05T09:08:34.301Z,5024
2018-10-05T09:09:35.697Z,5108
2018-10-05T09:10:37.090Z,5248
2018-10-05T09:11:38.499Z,5584
2018-10-05T09:12:39.897Z,16480
2018-10-05T09:13:41.295Z,45184
2018-10-05T09:14:42.695Z,53344
2018-10-05T09:15:44.094Z,52384
2018-10-05T09:16:45.495Z,53344
2018-10-05T09:17:46.978Z,53728
2018-10-05T09:18:48.296Z,56896
2018-10-05T09:19:49.689Z,57472
2018-10-05T09:20:51.089Z,57216
2018-10-05T09:21:52.547Z,56192
2018-10-05T09:22:53.889Z,54592
2018-10-05T09:23:55.288Z,49632
2018-10-05T09:24:56.694Z,47520
2018-10-05T09:25:58.096Z,50048
2018-10-05T09:26:59.494Z,51872
2018-10-05T09:28:00.895Z,51200
2018-10-05T09:29:02.296Z,50016
2018-10-05T09:30:03.712Z,55520
2018-10-05T09:31:05.109Z,56832
2018-10-05T09:32:06.514Z,55744
2018-10-05T09:33:07.917Z,55488
2018-10-05T09:34:09.318Z,49984
2018-10-05T09:35:10.728Z,59072
2018-10-05T09:36:12.129Z,59712
2018-10-05T09:37:13.554Z,57152
2018-10-05T09:38:14.930Z,47840
2018-10-05T09:39:16.333Z,52192
2018-10-05T09:40:17.733Z,54080
2018-10-05T09:41:19.143Z,57888
2018-10-05T09:42:20.543Z,56096
2018-10-05T09:43:21.949Z,55680
2018-10-05T09:44:23.353Z,55296
2018-10-05T09:45:24.788Z,52608
2018-10-05T09:46:26.163Z,33344
2018-10-05T09:47:27.567Z,51712
2018-10-05T09:48:28.974Z,47008
2018-10-05T09:49:30.378Z,45440
2018-10-05T09:50:31.790Z,42912
2018-10-05T09:51:33.195Z,39488
2018-10-05T09:52:34.629Z,32000
2018-10-05T09:53:36.015Z,35808
2018-10-05T09:54:37.422Z,36672
2018-10-05T09:55:38.824Z,34816
2018-10-05T09:56:40.228Z,33952
2018-10-05T09:57:41.653Z,34880
2018-10-05T09:58:43.064Z,35936
2018-10-05T09:59:44.528Z,38944
2018-10-05T10:00:45.868Z,43424
2018-10-05T10:01:47.283Z,46144
2018-10-05T10:02:48.691Z,47072
2018-10-05T10:03:50.101Z,49312
2018-10-05T10:04:51.513Z,52992
2018-10-05T10:05:52.924Z,53376
2018-10-05T10:06:54.332Z,53056
2018-10-05T10:07:55.807Z,54688
2018-10-05T10:08:57.145Z,52480
2018-10-05T10:09:58.556Z,62176
2018-10-05T10:10:59.962Z,77056
2018-10-05T10:12:01.372Z,79808
2018-10-05T10:13:02.780Z,73568
2018-10-05T10:14:04.194Z,71680
2018-10-05T10:15:05.596Z,76896
2018-10-05T10:16:07.004Z,78720
2018-10-05T10:17:08.410Z,74560
2018-10-05T10:18:09.819Z,72800
2018-10-05T10:19:11.234Z,73312
2018-10-05T10:20:12.639Z,74944
2018-10-05T10:21:14.053Z,76448
2018-10-05T10:22:15.471Z,74304
2018-10-05T10:23:16.880Z,81248
2018-10-05T10:24:18.309Z,81952
2018-10-05T10:25:19.717Z,74720
2018-10-05T10:26:21.127Z,67296
2018-10-05T10:27:22.543Z,61344
2018-10-05T10:28:23.984Z,60000
2018-10-05T10:29:25.432Z,68416
2018-10-05T10:30:26.780Z,77312
2018-10-05T10:31:28.191Z,76960
2018-10-05T10:32:29.656Z,70912
2018-10-05T10:33:31.091Z,72320
2018-10-05T10:34:32.535Z,80960
2018-10-05T10:35:33.893Z,79296
2018-10-05T10:36:35.309Z,70592
2018-10-05T10:37:36.726Z,57312
2018-10-05T10:38:38.138Z,17632
2018-10-05T10:39:39.544Z,13348
2018-10-05T10:40:40.953Z,12692
2018-10-05T10:41:42.392Z,12528
2018-10-05T10:42:43.844Z,12324
2018-10-05T10:43:45.205Z,12160
2018-10-05T10:44:46.613Z,12036
2018-10-05T10:45:48.029Z,12080
2018-10-05T10:46:49.480Z,12212
2018-10-05T10:47:50.886Z,11284
2018-10-05T10:48:52.296Z,12392
2018-10-05T10:49:53.700Z,12188
2018-10-05T10:50:55.106Z,12188
2018-10-05T10:51:56.511Z,11584
2018-10-05T10:52:57.927Z,11408
2018-10-05T10:53:59.371Z,12380
2018-10-05T10:55:00.812Z,10744
2018-10-05T10:56:02.161Z,11768
2018-10-05T10:57:03.567Z,12004
2018-10-05T10:58:04.974Z,12000
2018-10-05T10:59:06.384Z,11644
2018-10-05T11:00:07.801Z,11856
2018-10-05T11:01:09.245Z,11212
2018-10-05T11:02:10.647Z,11772
2018-10-05T11:03:12.098Z,12032
2018-10-05T11:04:13.484Z,12036
2018-10-05T11:05:14.857Z,12052
2018-10-05T11:06:16.258Z,11948
2018-10-05T11:07:17.696Z,11736
2018-10-05T11:08:19.101Z,11868
2018-10-05T11:09:20.508Z,11924
2018-10-05T11:10:21.908Z,10984
2018-10-05T11:11:23.311Z,12032
2018-10-05T11:12:24.718Z,11896
2018-10-05T11:13:26.118Z,11928
2018-10-05T11:14:27.524Z,11952
2018-10-05T11:15:28.932Z,12040
2018-10-05T11:16:30.333Z,11432
2018-10-05T11:17:31.734Z,11768
2018-10-05T11:18:33.132Z,12132
2018-10-05T11:19:34.541Z,11972
2018-10-05T11:20:35.937Z,11256
2018-10-05T11:21:37.346Z,11488
2018-10-05T11:22:38.748Z,12044
2018-10-05T11:23:40.155Z,11852
2018-10-05T11:24:41.559Z,11968
2018-10-05T11:25:42.958Z,11996
2018-10-05T11:26:44.361Z,11260
2018-10-05T11:27:45.759Z,11908
2018-10-05T11:28:47.162Z,11864
2018-10-05T11:29:48.593Z,11856
2018-10-05T11:30:50.645Z,11884
2018-10-05T11:31:52.048Z,11664
2018-10-05T11:32:53.449Z,11772
2018-10-05T11:33:54.851Z,11528
2018-10-05T11:34:56.308Z,11468
2018-10-05T11:35:57.658Z,11172
2018-10-05T11:36:59.064Z,11228
2018-10-05T11:38:00.473Z,11580
2018-10-05T11:39:01.871Z,11472
2018-10-05T11:40:03.287Z,11812
2018-10-05T11:41:04.684Z,11752
2018-10-05T11:42:06.088Z,11748
2018-10-05T11:43:07.488Z,11120
2018-10-05T11:44:08.890Z,11164
2018-10-05T11:45:10.336Z,11736
2018-10-05T11:46:11.720Z,11632
2018-10-05T11:47:13.093Z,11548
2018-10-05T11:48:14.494Z,11420
2018-10-05T11:49:15.896Z,11364
2018-10-05T11:50:17.300Z,11136
2018-10-05T11:51:18.702Z,11208
2018-10-05T11:52:20.124Z,11052
2018-10-05T11:53:21.508Z,11316
2018-10-05T11:54:22.908Z,11280
2018-10-05T11:55:24.352Z,11308
2018-10-05T11:56:25.713Z,11088
2018-10-05T11:57:27.115Z,11260
2018-10-05T11:58:28.520Z,11204
2018-10-05T11:59:29.965Z,11180
2018-10-05T12:00:31.330Z,11120
2018-10-05T12:01:32.730Z,11136
2018-10-05T12:02:34.264Z,11100
2018-10-05T12:03:35.534Z,11052
2018-10-05T12:04:36.942Z,11024
2018-10-05T12:05:38.339Z,11028
2018-10-05T12:06:39.740Z,11036
2018-10-05T12:07:41.145Z,10340
2018-10-05T12:08:42.547Z,10324
2018-10-05T12:09:43.951Z,10356
2018-10-05T12:10:45.348Z,10668
2018-10-05T12:11:46.754Z,10704
2018-10-05T12:12:48.155Z,10724
2018-10-05T12:13:49.640Z,10660
2018-10-05T12:14:50.961Z,10612
2018-10-05T12:15:52.362Z,10572
2018-10-05T12:16:53.763Z,10544
2018-10-05T12:17:55.166Z,10468
2018-10-05T12:18:56.568Z,10368
2018-10-05T12:19:58.009Z,10360
2018-10-05T12:20:59.375Z,10320
2018-10-05T12:22:00.782Z,10288
2018-10-05T12:23:02.186Z,10264
2018-10-05T12:24:03.591Z,10216
2018-10-05T12:25:04.994Z,10160
2018-10-05T12:26:06.421Z,10112
2018-10-05T12:27:07.853Z,10068
2018-10-05T12:28:09.256Z,10044
2018-10-05T12:29:10.651Z,9992
2018-10-05T12:30:12.066Z,9972
2018-10-05T12:31:13.458Z,9920
2018-10-05T12:32:14.855Z,9872
2018-10-05T12:33:16.341Z,9612
2018-10-05T12:34:17.676Z,9748
2018-10-05T12:35:19.064Z,9728
2018-10-05T12:36:20.463Z,9676
2018-10-05T12:37:21.861Z,9620
2018-10-05T12:38:23.264Z,9588
2018-10-05T12:39:24.660Z,9564
2018-10-05T12:40:26.063Z,9516
2018-10-05T12:41:27.463Z,9464
2018-10-05T12:42:29.007Z,9432
2018-10-05T12:43:30.410Z,9360
2018-10-05T12:44:31.810Z,9340
2018-10-05T12:45:33.209Z,9316
2018-10-05T12:46:34.611Z,9276
2018-10-05T12:47:36.011Z,9224
2018-10-05T12:48:37.413Z,9188
2018-10-05T12:49:38.838Z,9156
2018-10-05T12:50:40.237Z,9112
2018-10-05T12:51:41.650Z,9136
2018-10-05T12:52:43.054Z,7900
2018-10-05T12:53:44.451Z,9080
2018-10-05T12:54:45.851Z,8944
2018-10-05T12:55:47.255Z,8916
2018-10-05T12:56:48.658Z,8872
2018-10-05T12:57:50.059Z,8832
2018-10-05T12:58:51.461Z,8772
2018-10-05T12:59:52.863Z,8752
2018-10-05T13:00:54.264Z,8732
2018-10-05T13:01:55.666Z,8700
2018-10-05T13:02:57.066Z,8656
2018-10-05T13:03:58.471Z,8628
2018-10-05T13:04:59.896Z,8564
2018-10-05T13:06:01.533Z,8512
2018-10-05T13:07:02.922Z,8464
2018-10-05T13:08:04.322Z,8416
2018-10-05T13:09:05.725Z,8412
2018-10-05T13:10:07.125Z,8336
2018-10-05T13:11:08.530Z,8332
2018-10-05T13:12:09.931Z,8272
2018-10-05T13:13:11.333Z,8228
2018-10-05T13:14:12.731Z,8244
2018-10-05T13:15:14.130Z,8168
2018-10-05T13:16:15.530Z,8152
2018-10-05T13:17:16.936Z,8148
2018-10-05T13:18:18.338Z,8152
2018-10-05T13:19:19.738Z,8128
2018-10-05T13:20:21.133Z,7848
2018-10-05T13:21:22.551Z,8092
2018-10-05T13:22:23.951Z,8032
2018-10-05T13:23:25.400Z,7996
2018-10-05T13:24:26.801Z,7964
2018-10-05T13:25:28.202Z,7808
2018-10-05T13:26:29.602Z,7520
2018-10-05T13:27:31.110Z,7868
2018-10-05T13:28:32.502Z,7800
2018-10-05T13:29:33.876Z,7748
2018-10-05T13:30:35.380Z,7640
2018-10-05T13:31:36.962Z,7556
2018-10-05T13:32:38.479Z,7584
2018-10-05T13:33:39.879Z,7528
2018-10-05T13:34:41.274Z,7476
2018-10-05T13:35:42.679Z,7440
2018-10-05T13:36:44.081Z,7408
2018-10-05T13:37:45.478Z,7372
2018-10-05T13:38:46.887Z,7284
2018-10-05T13:39:48.423Z,7252
2018-10-05T13:40:50.030Z,7208
2018-10-05T13:41:51.664Z,7116
2018-10-05T13:42:53.004Z,6796
2018-10-05T13:43:54.418Z,6956
2018-10-05T13:44:55.927Z,6948
2018-10-05T13:45:57.349Z,6888
2018-10-05T13:46:58.847Z,6960
2018-10-05T13:48:00.378Z,6968
2018-10-05T13:49:01.874Z,6916
2018-10-05T13:50:03.272Z,6852
2018-10-05T13:51:04.679Z,6684
2018-10-05T13:52:06.135Z,6216
2018-10-05T13:53:07.611Z,6812
2018-10-05T13:54:09.075Z,6712
2018-10-05T13:55:10.482Z,6668
2018-10-05T13:56:12.011Z,6648
2018-10-05T13:57:13.449Z,6620
2018-10-05T13:58:14.851Z,5756
2018-10-05T13:59:16.251Z,5524
2018-10-05T14:00:17.816Z,6476
2018-10-05T14:01:19.303Z,6436
2018-10-05T14:02:20.722Z,6392
2018-10-05T14:03:22.273Z,6348
2018-10-05T14:04:23.674Z,6296
2018-10-05T14:05:25.073Z,6268
2018-10-05T14:06:26.472Z,6100
2018-10-05T14:07:27.877Z,6000
2018-10-05T14:08:29.272Z,6172